Terminal Aerodrome Forecast
Issued by NWS

Home | Current Version | Previous Version | Text Only | Print | Product List | Glossary On
Versions: 1 2 3 4 5 6 7 8 9 10 11 12 13
000
FTUS45 KPSR 241100
TAFBLH
TAF
KBLH 241134Z 2412/2512 VRB04KT P6SM BKN250
     FM241600 17008KT P6SM BKN250
      TEMPO 2420/2424 15012G22KT
     FM250200 20012KT P6SM BKN250=

USA.gov is the U.S. government's official web portal to all federal, state and local government web resources and services.